Time;durP1;ratioP1;P1;durP2;ratioP2;P2;SDS_P1;SDS_P2;PMS_P1;PMS_P2;Temp;Humidity;BMP_temperature;BMP_pressure;BME280_temperature;BME280_humidity;BME280_pressure;Samples;Min_cycle;Max_cycle;Signal;HPM_P1;HPM_P2
2023/01/31 01:20:08;;;;;;;77.28;32.55;;;;;;;1.96;100.00;100850.91;4859474;26;20052;-82
2023/01/31 01:22:41;;;;;;;74.68;31.58;;;;;;;1.95;100.00;100867.56;4935745;29;20294;-83
2023/01/31 01:25:08;;;;;;;75.78;32.78;;;;;;;1.88;100.00;100872.34;4956253;29;20043;-84
2023/01/31 01:27:34;;;;;;;75.80;31.88;;;;;;;2.00;100.00;100875.94;4965739;29;20027;-83
2023/01/31 01:30:03;;;;;;;81.47;33.60;;;;;;;2.06;100.00;100886.81;4964821;29;20146;-82
2023/01/31 01:32:28;;;;;;;79.88;31.85;;;;;;;2.14;100.00;100883.72;4967437;29;20035;-82
2023/01/31 01:34:54;;;;;;;77.80;31.73;;;;;;;2.07;100.00;100892.91;4949090;29;20461;-84
2023/01/31 01:37:19;;;;;;;79.13;31.10;;;;;;;2.02;100.00;100901.03;4964180;29;20035;-81
2023/01/31 01:39:46;;;;;;;78.95;32.42;;;;;;;2.02;100.00;100894.97;4965463;29;20039;-84
2023/01/31 01:42:17;;;;;;;75.82;32.40;;;;;;;1.75;100.00;100883.66;4964553;29;20046;-84
2023/01/31 01:44:51;;;;;;;81.30;32.88;;;;;;;1.64;100.00;100899.16;4951145;29;20040;-84
2023/01/31 01:47:51;;;;;;;76.47;31.60;;;;;;;1.67;100.00;100909.41;4954696;29;20055;-82
2023/01/31 01:50:35;;;;;;;78.47;31.50;;;;;;;1.58;100.00;100916.06;4958160;29;20089;-86
2023/01/31 01:53:16;;;;;;;81.30;32.83;;;;;;;1.77;100.00;100915.75;4946990;29;20166;-84
2023/01/31 01:56:16;;;;;;;76.50;32.53;;;;;;;2.04;100.00;100909.63;4949725;29;20040;-86
2023/01/31 01:58:51;;;;;;;74.80;30.70;;;;;;;1.80;100.00;100915.56;4873431;29;20111;-86
2023/01/31 02:01:19;;;;;;;81.82;32.85;;;;;;;1.57;100.00;100924.84;4852799;29;20109;-85
2023/01/31 02:03:47;;;;;;;79.82;32.72;;;;;;;1.69;100.00;100921.44;4849414;29;20029;-84
2023/01/31 02:06:16;;;;;;;82.30;32.80;;;;;;;1.49;100.00;100927.91;4842030;29;20041;-87
2023/01/31 02:08:42;;;;;;;76.75;31.95;;;;;;;1.68;100.00;100919.78;4895665;29;20039;-90
2023/01/31 02:11:18;;;;;;;78.20;32.22;;;;;;;1.61;100.00;100917.66;4914003;29;20035;-85
2023/01/31 02:13:46;;;;;;;70.18;30.48;;;;;;;1.52;100.00;100925.09;4935294;29;20035;-86
2023/01/31 02:16:13;;;;;;;76.53;31.75;;;;;;;1.44;100.00;100921.31;4930658;29;20374;-84
2023/01/31 02:18:40;;;;;;;71.78;29.88;;;;;;;1.45;100.00;100920.38;4927395;29;20643;-85
2023/01/31 02:21:05;;;;;;;70.60;30.77;;;;;;;1.58;100.00;100915.22;4917683;29;20031;-86
2023/01/31 02:23:43;;;;;;;73.88;29.45;;;;;;;1.63;100.00;100913.16;4924569;29;20036;-86
2023/01/31 02:26:21;;;;;;;70.30;29.73;;;;;;;1.66;100.00;100920.84;4903840;29;20047;-85
2023/01/31 02:29:24;;;;;;;71.28;30.33;;;;;;;1.70;100.00;100924.91;4917943;29;20051;-86
2023/01/31 02:32:08;;;;;;;;;;;;;;;1.91;100.00;100931.41;4917824;29;20437;-85
2023/01/31 02:34:54;;;;;;;70.38;30.48;;;;;;;1.76;100.00;100924.50;4917140;29;20008;-85
2023/01/31 02:37:35;;;;;;;70.72;29.70;;;;;;;1.83;100.00;100928.41;4899743;29;20037;-86
2023/01/31 02:40:15;;;;;;;69.25;30.35;;;;;;;1.90;100.00;100927.94;4899639;29;20498;-86
2023/01/31 02:42:49;;;;;;;71.35;29.67;;;;;;;2.01;100.00;100919.44;4899872;29;20032;-86
2023/01/31 02:45:40;;;;;;;71.03;29.90;;;;;;;1.91;100.00;100923.56;4899941;29;20073;-87
2023/01/31 02:48:25;;;;;;;50.60;20.37;;;;;;;1.95;100.00;100914.59;4857323;29;20048;-87
2023/01/31 02:50:57;;;;;;;62.33;27.58;;;;;;;2.11;100.00;100919.69;4916644;29;20044;-85
2023/01/31 02:53:30;;;;;;;60.63;28.08;;;;;;;2.02;100.00;100921.94;4916700;29;20043;-89
2023/01/31 02:56:13;;;;;;;;;;;;;;;1.92;100.00;100926.06;4900697;29;20391;-85
2023/01/31 02:58:47;;;;;;;70.05;27.83;;;;;;;1.96;100.00;100916.25;4915383;29;19915;-85
2023/01/31 03:01:19;;;;;;;65.15;27.70;;;;;;;1.64;100.00;100914.84;4899376;29;20442;-86
2023/01/31 03:03:46;;;;;;;63.38;27.98;;;;;;;1.31;100.00;100918.59;4919360;29;20088;-86
2023/01/31 03:06:21;;;;;;;67.57;28.05;;;;;;;1.24;100.00;100921.69;4899413;29;20447;-86
2023/01/31 03:09:07;;;;;;;59.90;26.60;;;;;;;1.23;100.00;100926.06;4884453;29;20055;-87
2023/01/31 03:12:08;;;;;;;66.72;25.85;;;;;;;1.33;100.00;100921.09;4917390;29;20043;-87
2023/01/31 03:14:53;;;;;;;61.28;25.88;;;;;;;1.34;100.00;100926.25;4901797;29;20044;-87
2023/01/31 03:17:30;;;;;;;54.15;23.65;;;;;;;1.42;100.00;100926.63;4915277;29;20126;-86
2023/01/31 03:20:07;;;;;;;56.50;22.45;;;;;;;1.17;100.00;100925.59;4917530;29;20157;-87
2023/01/31 03:22:39;;;;;;;53.33;22.50;;;;;;;1.01;100.00;100923.91;4900245;29;20127;-87
2023/01/31 03:25:09;;;;;;;47.47;21.50;;;;;;;0.79;100.00;100925.28;4900648;29;20498;-87
2023/01/31 03:27:36;;;;;;;50.88;20.88;;;;;;;0.90;100.00;100928.91;4900536;29;20112;-85
2023/01/31 03:30:13;;;;;;;46.50;19.70;;;;;;;1.18;100.00;100940.31;4900381;29;20044;-85
2023/01/31 03:32:48;;;;;;;48.85;20.05;;;;;;;1.26;100.00;100946.75;4899795;29;20072;-88
2023/01/31 03:35:13;;;;;;;49.08;20.10;;;;;;;1.23;100.00;100957.38;4908094;29;20055;-86
2023/01/31 03:37:58;;;;;;;42.22;20.15;;;;;;;1.15;100.00;100964.84;4923080;29;20131;-85
2023/01/31 03:40:36;;;;;;;51.22;21.70;;;;;;;1.15;100.00;100956.19;4915943;29;20055;-84
2023/01/31 03:43:04;;;;;;;52.90;20.65;;;;;;;1.01;100.00;100947.41;4922770;29;20060;-85
2023/01/31 03:45:50;;;;;;;49.58;20.33;;;;;;;1.07;100.00;100958.38;4904604;29;20040;-85
2023/01/31 03:48:21;;;;;;;49.95;19.58;;;;;;;1.17;100.00;100962.97;4905422;29;20060;-87
2023/01/31 03:50:56;;;;;;;44.43;20.10;;;;;;;1.13;100.00;100966.69;4922451;29;20490;-84
2023/01/31 03:53:33;;;;;;;53.47;21.73;;;;;;;1.06;100.00;100965.41;4904983;29;20036;-85
2023/01/31 03:55:58;;;;;;;44.38;19.42;;;;;;;1.21;100.00;100969.69;4904161;29;20040;-87
2023/01/31 03:58:29;;;;;;;45.22;19.05;;;;;;;1.09;100.00;100962.59;4903635;29;20099;-86
2023/01/31 04:00:59;;;;;;;46.15;21.05;;;;;;;1.22;100.00;100971.38;4903756;29;20036;-86
2023/01/31 04:04:08;;;;;;;52.13;21.05;;;;;;;1.22;100.00;100976.59;4887499;29;20512;-87
2023/01/31 04:06:37;;;;;;;50.38;19.65;;;;;;;1.47;100.00;100976.78;4905694;29;20051;-87
2023/01/31 04:09:04;;;;;;;47.38;19.83;;;;;;;1.44;100.00;100973.53;4903034;29;20047;-88
2023/01/31 04:11:36;;;;;;;50.13;19.05;;;;;;;1.41;100.00;100986.78;4919979;29;20044;-87
2023/01/31 04:14:02;;;;;;;43.15;19.33;;;;;;;1.58;100.00;100985.75;4920338;29;20040;-88
2023/01/31 04:16:27;;;;;;;45.88;19.95;;;;;;;1.27;100.00;100990.22;4920143;29;20028;-85
2023/01/31 04:18:55;;;;;;;44.28;19.27;;;;;;;1.30;100.00;100982.19;4920471;29;20144;-85
2023/01/31 04:21:21;;;;;;;46.72;19.90;;;;;;;1.20;100.00;100978.44;4918952;29;20048;-86
2023/01/31 04:23:47;;;;;;;46.28;20.23;;;;;;;1.20;100.00;100970.63;4920890;29;20099;-86
2023/01/31 04:26:13;;;;;;;51.45;21.65;;;;;;;1.00;100.00;100976.19;4920141;29;20052;-85
2023/01/31 04:28:39;;;;;;;49.95;22.10;;;;;;;1.04;100.00;100977.69;4920271;29;20024;-85
2023/01/31 04:31:05;;;;;;;46.00;20.00;;;;;;;1.24;100.00;100985.19;4919986;29;20036;-85
2023/01/31 04:33:30;;;;;;;55.67;23.42;;;;;;;0.97;100.00;100981.59;4919878;29;20501;-88
2023/01/31 04:35:55;;;;;;;49.75;21.98;;;;;;;1.09;100.00;100980.03;4919582;29;20409;-84
2023/01/31 04:38:21;;;;;;;48.58;21.63;;;;;;;1.22;100.00;100983.59;4919006;29;20032;-85
2023/01/31 04:40:46;;;;;;;55.63;22.00;;;;;;;1.03;100.00;100981.22;4919223;29;20556;-86
2023/01/31 04:43:12;;;;;;;49.85;22.25;;;;;;;1.02;100.00;100984.78;4919532;29;20043;-85
2023/01/31 04:45:38;;;;;;;49.60;21.40;;;;;;;0.97;100.00;100982.44;4902165;29;20055;-87
2023/01/31 04:48:04;;;;;;;56.78;22.70;;;;;;;1.11;100.00;100978.16;4918460;29;20039;-84
2023/01/31 04:50:29;;;;;;;51.80;21.67;;;;;;;1.06;100.00;100973.22;4917714;29;20496;-86
2023/01/31 04:52:55;;;;;;;53.67;21.95;;;;;;;1.20;100.00;100983.69;4923994;29;20038;-85
2023/01/31 04:55:21;;;;;;;53.25;22.42;;;;;;;1.08;100.00;100986.19;4956423;29;20058;-88
2023/01/31 04:57:47;;;;;;;46.17;20.17;;;;;;;0.99;100.00;100990.19;4957588;29;20473;-87
2023/01/31 05:00:13;;;;;;;51.60;22.33;;;;;;;0.70;100.00;100996.22;4966437;29;20031;-86
2023/01/31 05:02:39;;;;;;;49.83;20.85;;;;;;;0.56;100.00;100996.19;4957260;29;20405;-89
2023/01/31 05:05:05;;;;;;;48.45;21.42;;;;;;;0.42;100.00;101007.38;4956950;29;20039;-88
2023/01/31 05:07:31;;;;;;;52.22;21.77;;;;;;;0.37;100.00;101002.41;4956476;29;20159;-87
2023/01/31 05:09:56;;;;;;;51.00;20.33;;;;;;;0.35;100.00;101006.88;4956352;29;20073;-86
2023/01/31 05:12:22;;;;;;;53.33;20.90;;;;;;;0.31;100.00;101010.59;4952638;29;20485;-84
2023/01/31 05:14:47;;;;;;;49.00;20.90;;;;;;;0.30;100.00;101008.91;4938923;29;20040;-85
2023/01/31 05:17:13;;;;;;;46.05;20.17;;;;;;;0.37;100.00;101009.41;4919975;29;20040;-84
2023/01/31 05:19:38;;;;;;;54.75;22.90;;;;;;;0.29;100.00;101009.00;4937722;29;20039;-86
2023/01/31 05:22:04;;;;;;;50.63;21.10;;;;;;;0.30;100.00;101011.50;4937189;29;20032;-85
2023/01/31 05:24:31;;;;;;;60.80;21.55;;;;;;;0.33;100.00;101011.34;4937416;29;20039;-84
2023/01/31 05:27:00;;;;;;;49.58;20.17;;;;;;;0.26;100.00;101007.41;4937437;29;20048;-81
2023/01/31 05:29:30;;;;;;;57.72;21.20;;;;;;;0.33;100.00;101002.69;4937400;29;20123;-85
2023/01/31 05:31:58;;;;;;;56.15;21.85;;;;;;;0.34;100.00;101002.59;4936391;29;20039;-87
2023/01/31 05:34:25;;;;;;;53.05;22.08;;;;;;;0.56;100.00;101006.63;4936514;29;20474;-86
2023/01/31 05:36:54;;;;;;;65.50;23.02;;;;;;;0.32;100.00;101008.81;4938022;29;20045;-86
2023/01/31 05:39:23;;;;;;;;;;;;;;;0.42;100.00;101015.22;4941617;29;20095;-83
2023/01/31 05:41:48;;;;;;;52.05;20.52;;;;;;;0.57;100.00;101014.34;4937286;29;19923;-85
2023/01/31 05:44:15;;;;;;;51.75;21.65;;;;;;;0.66;100.00;101016.44;4937615;29;20038;-86
2023/01/31 05:46:40;;;;;;;45.60;19.65;;;;;;;0.55;100.00;101026.63;4937008;29;20043;-84
2023/01/31 05:49:06;;;;;;;45.35;20.20;;;;;;;0.47;100.00;101034.03;4937160;29;20095;-83
2023/01/31 05:51:31;;;;;;;48.10;20.83;;;;;;;0.35;100.00;101025.13;4936615;29;20099;-84
2023/01/31 05:53:57;;;;;;;46.53;20.70;;;;;;;0.32;100.00;101038.34;4936847;29;20121;-86
2023/01/31 05:56:23;;;;;;;52.72;21.90;;;;;;;0.36;100.00;101046.84;4936780;29;20038;-84
2023/01/31 05:58:49;;;;;;;51.30;20.10;;;;;;;0.52;100.00;101032.88;4936606;29;20036;-83
2023/01/31 06:01:26;;;;;;;51.13;22.75;;;;;;;0.48;100.00;101041.78;4936023;29;20390;-85
2023/01/31 06:03:52;;;;;;;49.35;21.50;;;;;;;0.42;100.00;101044.72;4934831;29;20044;-84
2023/01/31 06:06:18;;;;;;;45.97;19.63;;;;;;;0.54;100.00;101043.19;4918517;29;20115;-85
2023/01/31 06:08:43;;;;;;;46.10;20.50;;;;;;;0.77;100.00;101047.13;4939613;29;20059;-86
2023/01/31 06:11:10;;;;;;;45.85;19.80;;;;;;;0.85;100.00;101056.22;4935543;29;20015;-84
2023/01/31 06:13:42;;;;;;;35.90;17.10;;;;;;;1.02;100.00;101055.25;4935740;29;20047;-84
2023/01/31 06:16:08;;;;;;;35.40;14.55;;;;;;;0.90;100.00;101053.31;4934874;29;20036;-86
2023/01/31 06:18:34;;;;;;;33.38;15.32;;;;;;;0.84;100.00;101054.50;4935701;29;20032;-87
2023/01/31 06:21:00;;;;;;;40.97;16.05;;;;;;;0.69;100.00;101064.97;4936584;29;20500;-86
2023/01/31 06:23:26;;;;;;;31.27;15.18;;;;;;;0.57;100.00;101074.31;4937409;29;20035;-85
2023/01/31 06:25:55;;;;;;;32.50;14.07;;;;;;;0.51;100.00;101078.13;4939034;29;20039;-86
2023/01/31 06:28:21;;;;;;;33.45;14.70;;;;;;;0.61;100.00;101085.41;4935835;29;20155;-86
2023/01/31 06:30:46;;;;;;;36.15;15.40;;;;;;;0.61;100.00;101088.03;4937235;29;20035;-83
2023/01/31 06:33:12;;;;;;;34.92;14.30;;;;;;;0.81;100.00;101095.59;4937414;29;20035;-86
2023/01/31 06:35:38;;;;;;;35.17;13.73;;;;;;;0.85;100.00;101099.72;4919882;29;20150;-86
2023/01/31 06:38:04;;;;;;;35.15;15.00;;;;;;;0.86;100.00;101109.22;4923416;29;20044;-83
2023/01/31 06:40:30;;;;;;;30.48;14.05;;;;;;;0.89;100.00;101119.50;4922171;29;20040;-86
2023/01/31 06:42:57;;;;;;;32.22;14.90;;;;;;;1.09;100.00;101110.53;4910586;29;20055;-86
2023/01/31 06:45:23;;;;;;;32.80;13.68;;;;;;;1.18;100.00;101113.47;4927451;29;20039;-85
2023/01/31 06:47:48;;;;;;;32.20;15.23;;;;;;;1.48;100.00;101114.28;4924996;29;20028;-89
2023/01/31 06:50:14;;;;;;;38.28;16.70;;;;;;;1.50;100.00;101124.63;4908500;29;20067;-85
2023/01/31 06:52:40;;;;;;;36.00;16.05;;;;;;;1.50;100.00;101133.31;4924469;29;20446;-84
2023/01/31 06:55:06;;;;;;;39.00;16.27;;;;;;;1.73;100.00;101137.19;4932051;29;20032;-87
2023/01/31 06:57:32;;;;;;;38.55;16.45;;;;;;;1.61;100.00;101135.31;4920664;29;20170;-88
2023/01/31 06:59:57;;;;;;;37.03;17.13;;;;;;;1.75;100.00;101145.78;4936900;29;20054;-84
2023/01/31 07:02:23;;;;;;;38.28;17.15;;;;;;;1.88;100.00;101140.69;4926113;29;20047;-86
2023/01/31 07:04:48;;;;;;;39.45;17.73;;;;;;;1.90;100.00;101130.97;4913927;29;20111;-86
2023/01/31 07:07:14;;;;;;;41.38;16.30;;;;;;;2.18;100.00;101141.44;4918306;29;20062;-87
2023/01/31 07:09:39;;;;;;;45.97;18.95;;;;;;;2.29;100.00;101154.69;4922438;29;20609;-85
2023/01/31 07:12:05;;;;;;;44.15;17.48;;;;;;;2.45;100.00;101154.59;4930281;29;20032;-83
2023/01/31 07:14:31;;;;;;;36.70;16.90;;;;;;;2.54;100.00;101160.09;4940111;29;20477;-84
2023/01/31 07:16:56;;;;;;;42.55;16.65;;;;;;;3.13;100.00;101163.31;4943319;29;20085;-84
2023/01/31 07:19:22;;;;;;;44.85;16.95;;;;;;;3.78;100.00;101168.63;4936275;29;20028;-85
2023/01/31 07:21:48;;;;;;;39.10;17.83;;;;;;;3.26;100.00;101169.44;4947034;29;20198;-85
2023/01/31 07:24:16;;;;;;;39.00;18.23;;;;;;;3.28;100.00;101154.44;4937428;29;20036;-85
2023/01/31 07:26:42;;;;;;;39.03;17.05;;;;;;;3.48;100.00;101168.88;4926894;29;20043;-86
2023/01/31 07:29:08;;;;;;;38.97;16.92;;;;;;;3.53;100.00;101172.88;4927078;29;20032;-85
2023/01/31 07:31:33;;;;;;;37.83;16.85;;;;;;;3.62;100.00;101177.50;4931736;29;20051;-88
2023/01/31 07:34:02;;;;;;;36.35;16.25;;;;;;;3.67;100.00;101179.81;4914401;29;20031;-87
2023/01/31 07:36:27;;;;;;;36.28;17.10;;;;;;;3.61;100.00;101170.56;4927168;29;20039;-87
2023/01/31 07:38:55;;;;;;;36.95;15.90;;;;;;;4.73;100.00;101171.63;4927982;29;20398;-86
2023/01/31 07:41:21;;;;;;;33.45;14.90;;;;;;;5.51;100.00;101181.59;4911664;29;20179;-86
2023/01/31 07:43:46;;;;;;;30.70;14.63;;;;;;;5.78;100.00;101183.09;4929968;29;20067;-84
2023/01/31 07:46:12;;;;;;;28.23;13.05;;;;;;;5.60;100.00;101188.78;4923024;29;20109;-84
2023/01/31 07:48:37;;;;;;;31.00;13.55;;;;;;;5.05;100.00;101199.88;4927228;29;20393;-86
2023/01/31 07:51:03;;;;;;;25.98;12.75;;;;;;;5.25;100.00;101195.81;4935423;29;20040;-86
2023/01/31 07:53:31;;;;;;;27.48;13.35;;;;;;;5.27;100.00;101201.78;4939182;29;20110;-84
2023/01/31 07:56:17;;;;;;;29.35;14.20;;;;;;;5.96;100.00;101203.66;4924798;29;20040;-83
2023/01/31 07:58:44;;;;;;;25.60;12.77;;;;;;;5.58;100.00;101195.97;4939950;29;20062;-84
2023/01/31 08:03:59;;;;;;;25.33;12.63;;;;;;;7.29;100.00;101213.34;4926708;29;20032;-84
2023/01/31 08:06:28;;;;;;;26.17;13.55;;;;;;;7.68;100.00;101215.34;4939874;29;20024;-85
2023/01/31 08:08:53;;;;;;;33.88;15.45;;;;;;;6.81;100.00;101207.53;4940818;29;20079;-85
2023/01/31 08:11:18;;;;;;;31.98;15.68;;;;;;;7.08;100.00;101213.25;4941173;29;20028;-83
2023/01/31 08:13:44;;;;;;;31.00;14.95;;;;;;;7.23;100.00;101214.66;4923230;29;20031;-85
2023/01/31 08:16:10;;;;;;;32.92;15.57;;;;;;;7.35;100.00;101212.84;4940884;29;20036;-86
2023/01/31 08:18:36;;;;;;;30.33;15.70;;;;;;;7.82;100.00;101210.72;4941466;29;20036;-82
2023/01/31 08:21:02;;;;;;;31.42;16.65;;;;;;;7.91;100.00;101215.25;4925088;29;20440;-85
2023/01/31 08:23:28;;;;;;;32.78;15.73;;;;;;;8.25;99.63;101219.38;4923584;29;20039;-84
2023/01/31 08:26:05;;;;;;;41.40;16.83;;;;;;;7.38;100.00;101223.13;4941091;29;20039;-84
2023/01/31 08:28:35;;;;;;;31.63;14.68;;;;;;;6.62;100.00;101216.06;4943211;29;20035;-84
2023/01/31 08:31:00;;;;;;;34.08;16.60;;;;;;;6.82;100.00;101209.22;4943368;29;20091;-83
2023/01/31 08:33:26;;;;;;;31.23;16.17;;;;;;;7.19;100.00;101229.03;4942630;29;20040;-85
2023/01/31 08:35:51;;;;;;;33.28;16.10;;;;;;;7.14;100.00;101235.66;4924505;29;20501;-86
2023/01/31 08:38:17;;;;;;;29.02;15.68;;;;;;;6.89;100.00;101236.78;4941417;29;20075;-85
2023/01/31 08:40:43;;;;;;;35.58;16.92;;;;;;;6.10;100.00;101234.16;4938683;29;20063;-85
2023/01/31 08:43:08;;;;;;;38.13;15.00;;;;;;;5.92;100.00;101249.56;4939303;29;20047;-88
2023/01/31 08:45:35;;;;;;;34.65;15.85;;;;;;;5.60;100.00;101240.56;4939947;29;20106;-87
2023/01/31 08:48:04;;;;;;;30.60;14.95;;;;;;;5.79;100.00;101251.38;4940874;29;20129;-85
2023/01/31 08:50:31;;;;;;;34.65;15.93;;;;;;;6.44;100.00;101256.97;4941442;29;20040;-86
2023/01/31 08:52:59;;;;;;;35.10;14.73;;;;;;;6.85;100.00;101245.03;4939630;29;20485;-88
2023/01/31 08:55:26;;;;;;;32.17;14.90;;;;;;;7.19;100.00;101259.84;4940352;29;20043;-87
2023/01/31 08:57:52;;;;;;;32.40;15.40;;;;;;;6.61;100.00;101258.31;4939582;29;20477;-85
2023/01/31 09:00:20;;;;;;;29.30;15.55;;;;;;;6.43;100.00;101260.56;4940276;29;20047;-85
2023/01/31 09:02:59;;;;;;;31.10;14.60;;;;;;;6.23;100.00;101261.25;4941558;29;20062;-84
2023/01/31 09:05:26;;;;;;;29.45;14.38;;;;;;;6.71;100.00;101260.13;4939861;29;20036;-85
2023/01/31 09:07:53;;;;;;;29.33;14.80;;;;;;;6.33;100.00;101264.03;4947055;29;20032;-86
2023/01/31 09:10:20;;;;;;;29.73;14.40;;;;;;;6.29;100.00;101259.94;4940331;29;20031;-85
2023/01/31 09:12:46;;;;;;;30.80;14.05;;;;;;;6.37;100.00;101255.75;4941934;29;20042;-90
2023/01/31 09:15:12;;;;;;;29.52;13.45;;;;;;;6.52;100.00;101259.88;4941472;29;20070;-85
2023/01/31 09:17:39;;;;;;;30.67;14.55;;;;;;;6.48;100.00;101258.41;4939685;29;20461;-85
2023/01/31 09:20:06;;;;;;;25.52;13.40;;;;;;;6.68;100.00;101254.25;4939891;29;20047;-84
2023/01/31 09:22:33;;;;;;;31.60;15.10;;;;;;;6.54;100.00;101249.19;4939469;29;20043;-85
2023/01/31 09:25:00;;;;;;;29.58;14.75;;;;;;;6.79;100.00;101269.22;4941448;29;20521;-86
2023/01/31 09:27:27;;;;;;;27.40;13.75;;;;;;;6.79;100.00;101258.69;4923676;29;20058;-88
2023/01/31 09:29:52;;;;;;;29.23;14.90;;;;;;;6.89;100.00;101262.28;4942048;29;20492;-84
2023/01/31 09:32:19;;;;;;;29.80;14.77;;;;;;;6.74;100.00;101259.03;4943715;29;20035;-83
2023/01/31 09:34:47;;;;;;;28.38;14.25;;;;;;;6.63;100.00;101259.00;4943314;29;20039;-85
2023/01/31 09:37:12;;;;;;;29.42;14.60;;;;;;;6.58;100.00;101263.81;4924737;29;20032;-85
2023/01/31 09:39:38;;;;;;;30.77;15.73;;;;;;;6.64;100.00;101272.06;4939268;29;20031;-86
2023/01/31 09:42:24;;;;;;;33.67;15.48;;;;;;;6.85;100.00;101266.94;4939825;29;20063;-87
2023/01/31 09:45:12;;;;;;;34.00;16.08;;;;;;;7.24;100.00;101262.94;4938422;29;20115;-86
2023/01/31 09:47:42;;;;;;;29.70;15.05;;;;;;;7.43;100.00;101265.78;4921053;29;20039;-87
2023/01/31 09:50:30;;;;;;;38.97;17.27;;;;;;;7.03;100.00;101272.53;4921925;29;20130;-85
2023/01/31 09:52:56;;;;;;;30.90;16.25;;;;;;;7.02;100.00;101265.63;4938980;29;20087;-83
2023/01/31 09:55:34;;;;;;;32.25;17.02;;;;;;;7.43;100.00;101265.78;4938766;29;20091;-85
2023/01/31 09:58:06;;;;;;;32.58;16.40;;;;;;;7.70;100.00;101260.91;4940014;29;20040;-84
2023/01/31 10:00:38;;;;;;;31.70;16.40;;;;;;;7.67;100.00;101269.06;4938960;29;20082;-86
2023/01/31 10:03:41;;;;;;;40.63;15.90;;;;;;;7.51;100.00;101273.91;4939313;29;20047;-88
2023/01/31 10:06:21;;;;;;;35.50;16.58;;;;;;;7.56;100.00;101271.72;4938794;29;20044;-85
2023/01/31 10:09:01;;;;;;;35.15;16.27;;;;;;;7.52;100.00;101275.59;4920895;29;20051;-88
2023/01/31 10:11:34;;;;;;;36.85;17.38;;;;;;;7.54;100.00;101278.09;4919642;29;20035;-87
2023/01/31 10:14:42;;;;;;;35.70;16.52;;;;;;;7.79;100.00;101281.25;4937874;29;20051;-89
2023/01/31 10:17:19;;;;;;;34.08;17.67;;;;;;;7.74;100.00;101283.44;4896159;29;20098;-86
2023/01/31 10:20:14;;;;;;;43.85;17.73;;;;;;;7.52;100.00;101283.53;4936791;29;20488;-88
2023/01/31 10:22:49;;;;;;;29.30;15.25;;;;;;;7.65;100.00;101278.91;4936188;29;20036;-85
2023/01/31 10:25:25;;;;;;;33.80;16.63;;;;;;;7.40;100.00;101279.22;4919029;29;20123;-84
2023/01/31 10:28:03;;;;;;;29.95;16.17;;;;;;;7.32;100.00;101273.72;4927820;29;20046;-85
2023/01/31 10:30:50;;;;;;;37.03;16.77;;;;;;;7.46;100.00;101283.97;4936184;29;20485;-87
2023/01/31 10:33:51;;;;;;;33.85;16.13;;;;;;;7.73;100.00;101281.75;4913674;29;20047;-87
2023/01/31 10:36:55;;;;;;;42.22;17.70;;;;;;;7.79;100.00;101275.97;4856402;29;20108;-86
2023/01/31 10:39:24;;;;;;;43.70;19.52;;;;;;;7.78;100.00;101268.19;4887921;29;20142;-88
2023/01/31 10:41:59;;;;;;;34.95;18.70;;;;;;;7.82;100.00;101265.16;4919150;29;20126;-86
2023/01/31 10:44:39;;;;;;;39.45;19.75;;;;;;;8.10;100.00;101262.88;4936515;29;20040;-85
2023/01/31 10:47:11;;;;;;;40.53;20.40;;;;;;;7.96;100.00;101253.47;4936076;29;20086;-87
2023/01/31 10:49:36;;;;;;;40.40;20.25;;;;;;;7.76;100.00;101255.13;4935354;29;20040;-86
2023/01/31 10:52:32;;;;;;;50.72;21.73;;;;;;;7.80;100.00;101253.91;4919231;29;20028;-84
2023/01/31 10:55:20;;;;;;;40.38;20.98;;;;;;;7.84;100.00;101251.00;4933254;29;20047;-84
2023/01/31 10:57:46;;;;;;;47.40;22.85;;;;;;;7.55;100.00;101248.97;4934512;29;20040;-87
2023/01/31 11:00:41;;;;;;;45.50;22.35;;;;;;;7.62;100.00;101247.50;4935144;29;20082;-85
2023/01/31 11:03:11;;;;;;;47.00;23.85;;;;;;;7.72;100.00;101237.84;4839698;29;20202;-86
2023/01/31 11:05:44;;;;;;;50.42;24.33;;;;;;;7.92;100.00;101243.31;4839663;29;20049;-86
2023/01/31 11:08:20;;;;;;;45.08;23.73;;;;;;;7.98;100.00;101232.25;4839689;29;20053;-84
2023/01/31 11:10:54;;;;;;;52.30;22.38;;;;;;;8.06;100.00;101222.69;4840862;29;20046;-86
2023/01/31 11:13:20;;;;;;;48.08;24.13;;;;;;;7.94;100.00;101236.09;4874121;29;20102;-85
2023/01/31 11:15:47;;;;;;;46.50;23.42;;;;;;;8.01;100.00;101235.47;4936081;29;20047;-84
2023/01/31 11:18:29;;;;;;;49.45;23.67;;;;;;;8.00;100.00;101231.13;4935923;29;20393;-85
2023/01/31 11:20:55;;;;;;;47.00;23.30;;;;;;;7.99;100.00;101228.63;4936620;29;20381;-85
2023/01/31 11:23:24;;;;;;;52.17;25.45;;;;;;;8.19;100.00;101230.41;4925648;29;20080;-85
2023/01/31 11:25:51;;;;;;;48.83;24.48;;;;;;;8.28;100.00;101219.97;4926247;29;20047;-85
2023/01/31 11:28:38;;;;;;;48.97;24.85;;;;;;;8.14;100.00;101224.72;4923922;29;20036;-85
2023/01/31 11:31:06;;;;;;;50.70;26.75;;;;;;;8.01;100.00;101216.16;4917134;29;20515;-85
2023/01/31 11:33:55;;;;;;;51.40;25.67;;;;;;;8.07;100.00;101220.91;4936393;29;20054;-85
2023/01/31 11:36:23;;;;;;;48.28;25.85;;;;;;;8.23;100.00;101210.72;4954498;29;20036;-85
2023/01/31 11:38:53;;;;;;;63.95;28.60;;;;;;;8.35;100.00;101193.88;4954873;29;20070;-83
2023/01/31 11:41:28;;;;;;;53.97;28.15;;;;;;;8.38;100.00;101204.19;4954636;29;20043;-86
2023/01/31 11:44:09;;;;;;;54.17;29.15;;;;;;;8.44;100.00;101193.09;4954867;29;20035;-84
2023/01/31 11:46:43;;;;;;;60.35;31.80;;;;;;;8.31;100.00;101213.59;4954453;29;20039;-85
2023/01/31 11:49:21;;;;;;;64.07;32.58;;;;;;;8.37;100.00;101204.28;4956227;29;20392;-88
2023/01/31 11:51:48;;;;;;;65.65;31.58;;;;;;;8.43;100.00;101206.41;4940463;29;20043;-87
2023/01/31 11:54:19;;;;;;;60.42;31.08;;;;;;;8.39;100.00;101197.06;4955511;29;20126;-87
2023/01/31 11:56:48;;;;;;;65.72;31.52;;;;;;;8.34;100.00;101196.63;4960892;29;20058;-86
2023/01/31 11:59:20;;;;;;;55.60;28.85;;;;;;;8.27;100.00;101193.66;4965973;28;20042;-85
2023/01/31 12:01:49;;;;;;;57.20;29.23;;;;;;;8.22;100.00;101198.47;4953539;29;20102;-87
2023/01/31 12:04:22;;;;;;;68.30;32.25;;;;;;;8.24;100.00;101186.84;4971881;29;20039;-88
2023/01/31 12:07:13;;;;;;;;;;;;;;;8.17;100.00;101192.75;4972257;29;20050;-86
2023/01/31 12:09:42;;;;;;;71.47;34.50;;;;;;;8.22;100.00;101177.34;4965627;29;19925;-88
2023/01/31 12:12:24;;;;;;;72.20;35.00;;;;;;;8.25;100.00;101171.84;4956897;29;20043;-87
2023/01/31 12:14:49;;;;;;;74.93;34.05;;;;;;;8.47;100.00;101176.97;4974471;29;20062;-86
2023/01/31 12:17:16;;;;;;;79.47;35.00;;;;;;;8.57;100.00;101177.84;4951594;29;20632;-88
2023/01/31 12:20:10;;;;;;;79.03;34.13;;;;;;;8.61;100.00;101179.25;4962630;29;20063;-86
2023/01/31 12:23:19;;;;;;;71.55;33.70;;;;;;;8.67;98.91;101178.72;4962421;29;20047;-85
2023/01/31 12:26:10;;;;;;;78.65;34.78;;;;;;;8.60;100.00;101172.28;4916106;29;20040;-87
2023/01/31 12:28:35;;;;;;;82.38;36.55;;;;;;;8.71;100.00;101172.19;4925251;29;20040;-88
2023/01/31 12:31:12;;;;;;;76.88;35.65;;;;;;;8.79;100.00;101158.28;4906584;29;20051;-90
2023/01/31 12:33:47;;;;;;;78.40;35.78;;;;;;;8.64;100.00;101159.66;4895457;29;20036;-92
2023/01/31 12:36:31;;;;;;;74.82;35.13;;;;;;;8.59;100.00;101164.47;4906054;29;20044;-89
2023/01/31 12:39:16;;;;;;;75.60;33.65;;;;;;;8.58;100.00;101162.84;4911961;29;20036;-91
2023/01/31 12:41:47;;;;;;;70.85;35.15;;;;;;;8.64;100.00;101162.28;4929005;29;20048;-89
2023/01/31 12:44:35;;;;;;;53.03;23.92;;;;;;;8.68;100.00;101153.13;4920604;29;20091;-86
2023/01/31 12:47:12;;;;;;;73.20;32.60;;;;;;;8.75;100.00;101144.50;4919239;29;20095;-86
2023/01/31 12:49:50;;;;;;;71.53;32.92;;;;;;;8.85;100.00;101149.00;4920122;29;20048;-88
2023/01/31 12:52:27;;;;;;;71.78;33.17;;;;;;;8.85;100.00;101139.25;4924399;29;20091;-91